sensor_id;sensor_type;location;lat;lon;timestamp;P1;durP1;ratioP1;P2;durP2;ratioP2
29280;SDS011;25048;49.590;11.026;2023-07-02T00:00:19;2.20;;;1.70;;
29280;SDS011;25048;49.590;11.026;2023-07-02T00:02:47;2.27;;;1.60;;
29280;SDS011;25048;49.590;11.026;2023-07-02T00:05:15;3.17;;;1.60;;
29280;SDS011;25048;49.590;11.026;2023-07-02T00:07:43;1.67;;;1.40;;
29280;SDS011;25048;49.590;11.026;2023-07-02T00:10:11;5.22;;;1.60;;
29280;SDS011;25048;49.590;11.026;2023-07-02T00:12:38;3.10;;;1.50;;
29280;SDS011;25048;49.590;11.026;2023-07-02T00:15:06;2.52;;;1.57;;
29280;SDS011;25048;49.590;11.026;2023-07-02T00:17:33;1.70;;;1.42;;
29280;SDS011;25048;49.590;11.026;2023-07-02T00:20:03;3.50;;;1.98;;
29280;SDS011;25048;49.590;11.026;2023-07-02T00:22:30;4.53;;;2.02;;
29280;SDS011;25048;49.590;11.026;2023-07-02T00:25:00;2.22;;;1.82;;
29280;SDS011;25048;49.590;11.026;2023-07-02T00:27:27;3.30;;;1.80;;
29280;SDS011;25048;49.590;11.026;2023-07-02T00:29:54;2.02;;;1.57;;
29280;SDS011;25048;49.590;11.026;2023-07-02T00:32:22;5.83;;;2.17;;
29280;SDS011;25048;49.590;11.026;2023-07-02T00:34:49;2.85;;;1.98;;
29280;SDS011;25048;49.590;11.026;2023-07-02T00:37:17;4.05;;;2.22;;
29280;SDS011;25048;49.590;11.026;2023-07-02T00:39:45;3.83;;;2.10;;
29280;SDS011;25048;49.590;11.026;2023-07-02T00:42:13;2.98;;;2.05;;
29280;SDS011;25048;49.590;11.026;2023-07-02T00:44:42;3.45;;;2.52;;
29280;SDS011;25048;49.590;11.026;2023-07-02T00:47:10;2.08;;;1.87;;
29280;SDS011;25048;49.590;11.026;2023-07-02T00:49:39;3.85;;;2.40;;
29280;SDS011;25048;49.590;11.026;2023-07-02T00:52:07;4.15;;;2.70;;
29280;SDS011;25048;49.590;11.026;2023-07-02T00:54:34;4.33;;;2.60;;
29280;SDS011;25048;49.590;11.026;2023-07-02T00:57:03;5.75;;;2.83;;
29280;SDS011;25048;49.590;11.026;2023-07-02T00:59:31;3.72;;;2.62;;
29280;SDS011;25048;49.590;11.026;2023-07-02T01:02:01;3.85;;;2.62;;
29280;SDS011;25048;49.590;11.026;2023-07-02T01:04:30;2.87;;;2.52;;
29280;SDS011;25048;49.590;11.026;2023-07-02T01:06:58;3.17;;;2.55;;
29280;SDS011;25048;49.590;11.026;2023-07-02T01:09:26;3.47;;;2.45;;
29280;SDS011;25048;49.590;11.026;2023-07-02T01:11:54;4.22;;;2.10;;
29280;SDS011;25048;49.590;11.026;2023-07-02T01:14:36;3.37;;;2.47;;
29280;SDS011;25048;49.590;11.026;2023-07-02T01:17:05;4.78;;;2.90;;
29280;SDS011;25048;49.590;11.026;2023-07-02T01:22:09;3.40;;;2.33;;
29280;SDS011;25048;49.590;11.026;2023-07-02T01:24:40;3.42;;;2.40;;
29280;SDS011;25048;49.590;11.026;2023-07-02T01:27:08;3.10;;;2.58;;
29280;SDS011;25048;49.590;11.026;2023-07-02T01:29:36;3.90;;;2.30;;
29280;SDS011;25048;49.590;11.026;2023-07-02T01:32:03;3.20;;;2.52;;
29280;SDS011;25048;49.590;11.026;2023-07-02T01:34:31;3.90;;;2.42;;
29280;SDS011;25048;49.590;11.026;2023-07-02T01:36:59;3.25;;;2.30;;
29280;SDS011;25048;49.590;11.026;2023-07-02T01:39:27;4.53;;;2.42;;
29280;SDS011;25048;49.590;11.026;2023-07-02T01:41:55;3.98;;;2.47;;
29280;SDS011;25048;49.590;11.026;2023-07-02T01:44:35;3.33;;;2.70;;
29280;SDS011;25048;49.590;11.026;2023-07-02T01:47:03;3.05;;;2.72;;
29280;SDS011;25048;49.590;11.026;2023-07-02T01:49:31;2.50;;;2.05;;
29280;SDS011;25048;49.590;11.026;2023-07-02T01:51:58;3.15;;;2.20;;
29280;SDS011;25048;49.590;11.026;2023-07-02T01:54:26;3.45;;;2.90;;
29280;SDS011;25048;49.590;11.026;2023-07-02T01:56:54;2.92;;;1.98;;
29280;SDS011;25048;49.590;11.026;2023-07-02T01:59:22;2.75;;;2.30;;
29280;SDS011;25048;49.590;11.026;2023-07-02T02:01:50;3.33;;;2.67;;
29280;SDS011;25048;49.590;11.026;2023-07-02T02:04:18;3.30;;;2.47;;
29280;SDS011;25048;49.590;11.026;2023-07-02T02:06:46;3.10;;;2.27;;
29280;SDS011;25048;49.590;11.026;2023-07-02T02:09:13;7.30;;;2.60;;
29280;SDS011;25048;49.590;11.026;2023-07-02T02:11:42;3.22;;;2.65;;
29280;SDS011;25048;49.590;11.026;2023-07-02T02:14:11;2.42;;;2.20;;
29280;SDS011;25048;49.590;11.026;2023-07-02T02:16:39;2.37;;;2.17;;
29280;SDS011;25048;49.590;11.026;2023-07-02T02:19:07;4.40;;;2.80;;
29280;SDS011;25048;49.590;11.026;2023-07-02T02:21:35;3.08;;;2.47;;
29280;SDS011;25048;49.590;11.026;2023-07-02T02:24:02;3.90;;;2.08;;
29280;SDS011;25048;49.590;11.026;2023-07-02T02:26:30;2.65;;;2.30;;
29280;SDS011;25048;49.590;11.026;2023-07-02T02:28:58;2.65;;;2.27;;
29280;SDS011;25048;49.590;11.026;2023-07-02T02:31:25;4.42;;;2.27;;
29280;SDS011;25048;49.590;11.026;2023-07-02T02:33:54;3.05;;;2.00;;
29280;SDS011;25048;49.590;11.026;2023-07-02T02:36:21;3.05;;;2.30;;
29280;SDS011;25048;49.590;11.026;2023-07-02T02:38:49;2.72;;;2.50;;
29280;SDS011;25048;49.590;11.026;2023-07-02T02:41:16;2.67;;;2.40;;
29280;SDS011;25048;49.590;11.026;2023-07-02T02:43:44;2.30;;;2.10;;
29280;SDS011;25048;49.590;11.026;2023-07-02T02:46:11;4.70;;;2.70;;
29280;SDS011;25048;49.590;11.026;2023-07-02T02:48:39;2.85;;;2.25;;
29280;SDS011;25048;49.590;11.026;2023-07-02T02:51:06;4.40;;;2.20;;
29280;SDS011;25048;49.590;11.026;2023-07-02T02:53:34;6.35;;;2.10;;
29280;SDS011;25048;49.590;11.026;2023-07-02T02:56:02;4.05;;;2.30;;
29280;SDS011;25048;49.590;11.026;2023-07-02T02:58:29;3.15;;;2.52;;
29280;SDS011;25048;49.590;11.026;2023-07-02T03:00:57;3.12;;;2.17;;
29280;SDS011;25048;49.590;11.026;2023-07-02T03:03:24;4.80;;;2.20;;
29280;SDS011;25048;49.590;11.026;2023-07-02T03:05:52;3.35;;;2.10;;
29280;SDS011;25048;49.590;11.026;2023-07-02T03:08:19;4.47;;;2.17;;
29280;SDS011;25048;49.590;11.026;2023-07-02T03:10:47;6.40;;;2.17;;
29280;SDS011;25048;49.590;11.026;2023-07-02T03:13:14;4.62;;;2.30;;
29280;SDS011;25048;49.590;11.026;2023-07-02T03:15:42;2.50;;;2.05;;
29280;SDS011;25048;49.590;11.026;2023-07-02T03:18:09;3.15;;;2.30;;
29280;SDS011;25048;49.590;11.026;2023-07-02T03:20:37;6.25;;;2.27;;
29280;SDS011;25048;49.590;11.026;2023-07-02T03:23:04;3.98;;;2.45;;
29280;SDS011;25048;49.590;11.026;2023-07-02T03:25:32;3.85;;;2.02;;
29280;SDS011;25048;49.590;11.026;2023-07-02T03:27:59;3.55;;;2.00;;
29280;SDS011;25048;49.590;11.026;2023-07-02T03:30:26;3.52;;;2.00;;
29280;SDS011;25048;49.590;11.026;2023-07-02T03:32:54;2.70;;;1.95;;
29280;SDS011;25048;49.590;11.026;2023-07-02T03:35:22;4.45;;;2.37;;
29280;SDS011;25048;49.590;11.026;2023-07-02T03:37:49;2.17;;;1.72;;
29280;SDS011;25048;49.590;11.026;2023-07-02T03:40:17;2.02;;;1.65;;
29280;SDS011;25048;49.590;11.026;2023-07-02T03:42:44;4.90;;;2.10;;
29280;SDS011;25048;49.590;11.026;2023-07-02T03:45:12;2.95;;;1.47;;
29280;SDS011;25048;49.590;11.026;2023-07-02T03:47:39;6.15;;;1.90;;
29280;SDS011;25048;49.590;11.026;2023-07-02T03:50:07;1.90;;;1.55;;
29280;SDS011;25048;49.590;11.026;2023-07-02T03:52:36;3.30;;;1.92;;
29280;SDS011;25048;49.590;11.026;2023-07-02T03:55:03;3.05;;;1.77;;
29280;SDS011;25048;49.590;11.026;2023-07-02T03:57:31;2.60;;;1.52;;
29280;SDS011;25048;49.590;11.026;2023-07-02T03:59:59;2.62;;;1.70;;
29280;SDS011;25048;49.590;11.026;2023-07-02T04:02:27;3.50;;;1.75;;
29280;SDS011;25048;49.590;11.026;2023-07-02T04:04:54;3.95;;;1.70;;
29280;SDS011;25048;49.590;11.026;2023-07-02T04:07:22;2.83;;;1.90;;
29280;SDS011;25048;49.590;11.026;2023-07-02T04:09:49;4.50;;;1.87;;
29280;SDS011;25048;49.590;11.026;2023-07-02T04:12:17;2.95;;;1.80;;
29280;SDS011;25048;49.590;11.026;2023-07-02T04:14:44;5.28;;;1.98;;
29280;SDS011;25048;49.590;11.026;2023-07-02T04:17:12;5.20;;;1.40;;
29280;SDS011;25048;49.590;11.026;2023-07-02T04:19:39;1.67;;;1.45;;
29280;SDS011;25048;49.590;11.026;2023-07-02T04:22:07;5.08;;;1.90;;
29280;SDS011;25048;49.590;11.026;2023-07-02T04:24:34;3.20;;;1.62;;
29280;SDS011;25048;49.590;11.026;2023-07-02T04:27:02;2.83;;;1.35;;
29280;SDS011;25048;49.590;11.026;2023-07-02T04:29:29;3.80;;;2.02;;
29280;SDS011;25048;49.590;11.026;2023-07-02T04:31:57;9.23;;;2.00;;
29280;SDS011;25048;49.590;11.026;2023-07-02T04:34:24;5.42;;;1.60;;
29280;SDS011;25048;49.590;11.026;2023-07-02T04:36:52;3.15;;;1.52;;
29280;SDS011;25048;49.590;11.026;2023-07-02T04:39:19;6.33;;;2.02;;
29280;SDS011;25048;49.590;11.026;2023-07-02T04:41:47;7.60;;;1.82;;
29280;SDS011;25048;49.590;11.026;2023-07-02T04:44:16;4.03;;;1.98;;
29280;SDS011;25048;49.590;11.026;2023-07-02T04:46:43;7.78;;;2.20;;
29280;SDS011;25048;49.590;11.026;2023-07-02T04:49:11;4.53;;;1.82;;
29280;SDS011;25048;49.590;11.026;2023-07-02T04:51:39;4.50;;;2.00;;
29280;SDS011;25048;49.590;11.026;2023-07-02T04:54:06;2.83;;;1.60;;
29280;SDS011;25048;49.590;11.026;2023-07-02T04:56:34;4.03;;;1.92;;
29280;SDS011;25048;49.590;11.026;2023-07-02T04:59:01;3.37;;;1.50;;
29280;SDS011;25048;49.590;11.026;2023-07-02T05:01:29;6.40;;;1.82;;
29280;SDS011;25048;49.590;11.026;2023-07-02T05:03:57;3.10;;;1.47;;
29280;SDS011;25048;49.590;11.026;2023-07-02T05:06:24;4.78;;;1.50;;
29280;SDS011;25048;49.590;11.026;2023-07-02T05:08:52;3.98;;;1.70;;
29280;SDS011;25048;49.590;11.026;2023-07-02T05:11:19;3.95;;;1.70;;
29280;SDS011;25048;49.590;11.026;2023-07-02T05:13:47;5.37;;;1.50;;
29280;SDS011;25048;49.590;11.026;2023-07-02T05:16:14;2.80;;;1.30;;
29280;SDS011;25048;49.590;11.026;2023-07-02T05:18:42;2.85;;;1.52;;
29280;SDS011;25048;49.590;11.026;2023-07-02T05:21:09;5.92;;;1.98;;
29280;SDS011;25048;49.590;11.026;2023-07-02T05:23:37;6.58;;;1.90;;
29280;SDS011;25048;49.590;11.026;2023-07-02T05:26:05;3.77;;;2.10;;
29280;SDS011;25048;49.590;11.026;2023-07-02T05:28:32;6.87;;;2.15;;
29280;SDS011;25048;49.590;11.026;2023-07-02T05:31:00;6.75;;;2.10;;
29280;SDS011;25048;49.590;11.026;2023-07-02T05:33:27;3.77;;;2.12;;
29280;SDS011;25048;49.590;11.026;2023-07-02T05:35:56;5.30;;;2.02;;
29280;SDS011;25048;49.590;11.026;2023-07-02T05:38:24;7.42;;;2.20;;
29280;SDS011;25048;49.590;11.026;2023-07-02T05:40:52;7.25;;;2.67;;
29280;SDS011;25048;49.590;11.026;2023-07-02T05:43:19;7.55;;;3.02;;
29280;SDS011;25048;49.590;11.026;2023-07-02T05:45:47;6.28;;;2.72;;
29280;SDS011;25048;49.590;11.026;2023-07-02T05:48:16;9.85;;;3.87;;
29280;SDS011;25048;49.590;11.026;2023-07-02T05:50:44;6.55;;;3.40;;
29280;SDS011;25048;49.590;11.026;2023-07-02T05:53:11;9.95;;;3.75;;
29280;SDS011;25048;49.590;11.026;2023-07-02T05:55:39;7.50;;;3.47;;
29280;SDS011;25048;49.590;11.026;2023-07-02T05:58:07;9.45;;;3.95;;
29280;SDS011;25048;49.590;11.026;2023-07-02T06:00:35;9.18;;;3.90;;
29280;SDS011;25048;49.590;11.026;2023-07-02T06:03:02;8.90;;;3.50;;
29280;SDS011;25048;49.590;11.026;2023-07-02T06:05:30;8.98;;;4.28;;
29280;SDS011;25048;49.590;11.026;2023-07-02T06:07:57;9.63;;;4.30;;
29280;SDS011;25048;49.590;11.026;2023-07-02T06:10:25;9.05;;;3.83;;
29280;SDS011;25048;49.590;11.026;2023-07-02T06:12:52;9.63;;;3.70;;
29280;SDS011;25048;49.590;11.026;2023-07-02T06:15:20;10.30;;;4.00;;
29280;SDS011;25048;49.590;11.026;2023-07-02T06:17:47;9.68;;;3.50;;
29280;SDS011;25048;49.590;11.026;2023-07-02T06:20:15;5.50;;;3.22;;
29280;SDS011;25048;49.590;11.026;2023-07-02T06:22:42;9.83;;;3.95;;
29280;SDS011;25048;49.590;11.026;2023-07-02T06:25:10;9.93;;;4.40;;
29280;SDS011;25048;49.590;11.026;2023-07-02T06:27:37;12.93;;;4.65;;
29280;SDS011;25048;49.590;11.026;2023-07-02T06:30:05;6.70;;;3.98;;
29280;SDS011;25048;49.590;11.026;2023-07-02T06:32:33;10.70;;;4.70;;
29280;SDS011;25048;49.590;11.026;2023-07-02T06:35:01;9.90;;;4.17;;
29280;SDS011;25048;49.590;11.026;2023-07-02T06:37:28;10.05;;;4.42;;
29280;SDS011;25048;49.590;11.026;2023-07-02T06:39:56;9.98;;;4.30;;
29280;SDS011;25048;49.590;11.026;2023-07-02T06:42:24;9.50;;;4.37;;
29280;SDS011;25048;49.590;11.026;2023-07-02T06:44:52;12.85;;;5.00;;
29280;SDS011;25048;49.590;11.026;2023-07-02T06:47:19;9.90;;;4.33;;
29280;SDS011;25048;49.590;11.026;2023-07-02T06:49:47;11.93;;;5.10;;
29280;SDS011;25048;49.590;11.026;2023-07-02T06:52:14;9.70;;;4.75;;
29280;SDS011;25048;49.590;11.026;2023-07-02T06:54:42;13.35;;;4.72;;
29280;SDS011;25048;49.590;11.026;2023-07-02T06:57:09;10.65;;;4.70;;
29280;SDS011;25048;49.590;11.026;2023-07-02T06:59:37;10.43;;;4.70;;
29280;SDS011;25048;49.590;11.026;2023-07-02T07:02:04;11.78;;;5.08;;
29280;SDS011;25048;49.590;11.026;2023-07-02T07:04:32;12.43;;;4.40;;
29280;SDS011;25048;49.590;11.026;2023-07-02T07:07:03;9.40;;;4.70;;
29280;SDS011;25048;49.590;11.026;2023-07-02T07:09:30;12.90;;;4.97;;
29280;SDS011;25048;49.590;11.026;2023-07-02T07:11:58;12.88;;;5.25;;
29280;SDS011;25048;49.590;11.026;2023-07-02T07:14:25;9.85;;;4.92;;
29280;SDS011;25048;49.590;11.026;2023-07-02T07:16:53;12.80;;;4.90;;
29280;SDS011;25048;49.590;11.026;2023-07-02T07:19:20;11.78;;;5.08;;
29280;SDS011;25048;49.590;11.026;2023-07-02T07:21:48;12.60;;;5.12;;
29280;SDS011;25048;49.590;11.026;2023-07-02T07:24:15;12.53;;;6.00;;
29280;SDS011;25048;49.590;11.026;2023-07-02T07:26:43;12.55;;;6.35;;
29280;SDS011;25048;49.590;11.026;2023-07-02T07:29:11;12.85;;;4.97;;
29280;SDS011;25048;49.590;11.026;2023-07-02T07:31:39;9.88;;;4.70;;
29280;SDS011;25048;49.590;11.026;2023-07-02T07:34:07;9.40;;;5.08;;
29280;SDS011;25048;49.590;11.026;2023-07-02T07:36:40;8.75;;;4.92;;
29280;SDS011;25048;49.590;11.026;2023-07-02T07:39:08;9.38;;;4.60;;
29280;SDS011;25048;49.590;11.026;2023-07-02T07:41:35;9.08;;;4.35;;
29280;SDS011;25048;49.590;11.026;2023-07-02T07:44:03;10.68;;;4.72;;
29280;SDS011;25048;49.590;11.026;2023-07-02T07:46:30;8.03;;;4.50;;
29280;SDS011;25048;49.590;11.026;2023-07-02T07:48:58;8.10;;;4.78;;
29280;SDS011;25048;49.590;11.026;2023-07-02T07:51:25;13.60;;;4.55;;
29280;SDS011;25048;49.590;11.026;2023-07-02T07:53:53;9.78;;;4.37;;
29280;SDS011;25048;49.590;11.026;2023-07-02T07:56:20;9.88;;;4.30;;
29280;SDS011;25048;49.590;11.026;2023-07-02T07:58:48;10.23;;;3.87;;
29280;SDS011;25048;49.590;11.026;2023-07-02T08:01:15;7.67;;;3.58;;
29280;SDS011;25048;49.590;11.026;2023-07-02T08:03:43;7.63;;;3.90;;
29280;SDS011;25048;49.590;11.026;2023-07-02T08:06:10;7.90;;;3.30;;
29280;SDS011;25048;49.590;11.026;2023-07-02T08:08:38;10.38;;;3.90;;
29280;SDS011;25048;49.590;11.026;2023-07-02T08:11:05;7.20;;;4.03;;
29280;SDS011;25048;49.590;11.026;2023-07-02T08:13:33;4.87;;;3.25;;
29280;SDS011;25048;49.590;11.026;2023-07-02T08:16:00;7.05;;;3.33;;
29280;SDS011;25048;49.590;11.026;2023-07-02T08:18:28;8.20;;;3.17;;
29280;SDS011;25048;49.590;11.026;2023-07-02T08:20:56;5.90;;;3.58;;
29280;SDS011;25048;49.590;11.026;2023-07-02T08:23:23;9.88;;;3.65;;
29280;SDS011;25048;49.590;11.026;2023-07-02T08:25:51;9.33;;;3.87;;
29280;SDS011;25048;49.590;11.026;2023-07-02T08:28:18;7.95;;;3.98;;
29280;SDS011;25048;49.590;11.026;2023-07-02T08:30:46;9.48;;;3.65;;
29280;SDS011;25048;49.590;11.026;2023-07-02T08:33:14;5.25;;;3.35;;
29280;SDS011;25048;49.590;11.026;2023-07-02T08:35:41;9.10;;;4.08;;
29280;SDS011;25048;49.590;11.026;2023-07-02T08:38:09;6.90;;;3.67;;
29280;SDS011;25048;49.590;11.026;2023-07-02T08:40:36;7.08;;;3.62;;
29280;SDS011;25048;49.590;11.026;2023-07-02T08:43:04;7.37;;;3.62;;
29280;SDS011;25048;49.590;11.026;2023-07-02T08:45:31;5.53;;;3.35;;
29280;SDS011;25048;49.590;11.026;2023-07-02T08:47:59;8.68;;;3.40;;
29280;SDS011;25048;49.590;11.026;2023-07-02T08:50:27;9.00;;;4.92;;
29280;SDS011;25048;49.590;11.026;2023-07-02T08:52:55;10.28;;;4.45;;
29280;SDS011;25048;49.590;11.026;2023-07-02T08:55:22;8.75;;;3.37;;
29280;SDS011;25048;49.590;11.026;2023-07-02T08:57:51;7.08;;;3.40;;
29280;SDS011;25048;49.590;11.026;2023-07-02T09:00:20;6.53;;;3.62;;
29280;SDS011;25048;49.590;11.026;2023-07-02T09:02:48;7.05;;;3.80;;
29280;SDS011;25048;49.590;11.026;2023-07-02T09:05:16;6.20;;;3.52;;
29280;SDS011;25048;49.590;11.026;2023-07-02T09:07:44;6.25;;;3.47;;
29280;SDS011;25048;49.590;11.026;2023-07-02T09:10:26;5.55;;;3.45;;
29280;SDS011;25048;49.590;11.026;2023-07-02T09:13:07;9.25;;;3.60;;
29280;SDS011;25048;49.590;11.026;2023-07-02T09:15:38;7.12;;;3.87;;
29280;SDS011;25048;49.590;11.026;2023-07-02T09:18:17;6.15;;;4.15;;
29280;SDS011;25048;49.590;11.026;2023-07-02T09:20:45;9.38;;;3.37;;
29280;SDS011;25048;49.590;11.026;2023-07-02T09:23:13;5.42;;;4.08;;
29280;SDS011;25048;49.590;11.026;2023-07-02T09:25:41;5.75;;;3.10;;
29280;SDS011;25048;49.590;11.026;2023-07-02T09:28:18;6.42;;;3.58;;
29280;SDS011;25048;49.590;11.026;2023-07-02T09:30:51;5.45;;;3.65;;
29280;SDS011;25048;49.590;11.026;2023-07-02T09:33:25;5.10;;;3.33;;
29280;SDS011;25048;49.590;11.026;2023-07-02T09:35:54;5.30;;;3.33;;
29280;SDS011;25048;49.590;11.026;2023-07-02T09:38:22;7.85;;;3.83;;
29280;SDS011;25048;49.590;11.026;2023-07-02T09:40:50;6.72;;;3.70;;
29280;SDS011;25048;49.590;11.026;2023-07-02T09:43:19;6.33;;;3.50;;
29280;SDS011;25048;49.590;11.026;2023-07-02T09:45:48;5.95;;;3.35;;
29280;SDS011;25048;49.590;11.026;2023-07-02T09:48:18;11.25;;;4.03;;
29280;SDS011;25048;49.590;11.026;2023-07-02T09:50:48;5.70;;;3.58;;
29280;SDS011;25048;49.590;11.026;2023-07-02T09:53:17;5.33;;;3.40;;
29280;SDS011;25048;49.590;11.026;2023-07-02T09:55:44;7.25;;;3.72;;
29280;SDS011;25048;49.590;11.026;2023-07-02T09:58:12;9.10;;;3.67;;
29280;SDS011;25048;49.590;11.026;2023-07-02T10:00:39;7.87;;;3.75;;
29280;SDS011;25048;49.590;11.026;2023-07-02T10:03:08;8.25;;;3.55;;
29280;SDS011;25048;49.590;11.026;2023-07-02T10:05:36;7.12;;;3.40;;
29280;SDS011;25048;49.590;11.026;2023-07-02T10:08:12;4.75;;;3.35;;
29280;SDS011;25048;49.590;11.026;2023-07-02T10:10:43;6.87;;;4.17;;
29280;SDS011;25048;49.590;11.026;2023-07-02T10:13:11;8.55;;;3.98;;
29280;SDS011;25048;49.590;11.026;2023-07-02T10:15:38;7.92;;;4.20;;
29280;SDS011;25048;49.590;11.026;2023-07-02T10:18:07;8.78;;;4.40;;
29280;SDS011;25048;49.590;11.026;2023-07-02T10:20:38;5.78;;;3.85;;
29280;SDS011;25048;49.590;11.026;2023-07-02T10:23:08;10.43;;;4.65;;
29280;SDS011;25048;49.590;11.026;2023-07-02T10:25:37;7.83;;;5.00;;
29280;SDS011;25048;49.590;11.026;2023-07-02T10:28:15;17.27;;;8.48;;
29280;SDS011;25048;49.590;11.026;2023-07-02T10:30:45;6.08;;;4.10;;
29280;SDS011;25048;49.590;11.026;2023-07-02T10:33:13;8.25;;;5.10;;
29280;SDS011;25048;49.590;11.026;2023-07-02T10:35:44;10.95;;;6.37;;
29280;SDS011;25048;49.590;11.026;2023-07-02T10:38:15;11.78;;;6.20;;
29280;SDS011;25048;49.590;11.026;2023-07-02T10:40:44;7.70;;;4.72;;
29280;SDS011;25048;49.590;11.026;2023-07-02T10:43:12;7.90;;;4.12;;
29280;SDS011;25048;49.590;11.026;2023-07-02T10:45:40;8.65;;;4.53;;
29280;SDS011;25048;49.590;11.026;2023-07-02T10:48:10;7.55;;;4.65;;
29280;SDS011;25048;49.590;11.026;2023-07-02T10:50:38;8.43;;;4.75;;
29280;SDS011;25048;49.590;11.026;2023-07-02T10:53:05;7.97;;;5.42;;
29280;SDS011;25048;49.590;11.026;2023-07-02T10:55:33;10.98;;;4.25;;
29280;SDS011;25048;49.590;11.026;2023-07-02T10:58:08;10.08;;;4.80;;
29280;SDS011;25048;49.590;11.026;2023-07-02T11:00:46;8.85;;;4.58;;
29280;SDS011;25048;49.590;11.026;2023-07-02T11:03:18;9.15;;;5.65;;
29280;SDS011;25048;49.590;11.026;2023-07-02T11:05:47;11.70;;;4.85;;
29280;SDS011;25048;49.590;11.026;2023-07-02T11:08:15;5.15;;;3.70;;
29280;SDS011;25048;49.590;11.026;2023-07-02T11:10:43;6.03;;;3.85;;
29280;SDS011;25048;49.590;11.026;2023-07-02T11:13:17;5.10;;;3.70;;
29280;SDS011;25048;49.590;11.026;2023-07-02T11:15:46;6.35;;;3.67;;
29280;SDS011;25048;49.590;11.026;2023-07-02T11:18:15;6.90;;;4.45;;
29280;SDS011;25048;49.590;11.026;2023-07-02T11:20:44;7.22;;;4.12;;
29280;SDS011;25048;49.590;11.026;2023-07-02T11:23:19;4.85;;;3.42;;
29280;SDS011;25048;49.590;11.026;2023-07-02T11:28:26;8.08;;;4.75;;
29280;SDS011;25048;49.590;11.026;2023-07-02T11:30:55;5.83;;;3.62;;
29280;SDS011;25048;49.590;11.026;2023-07-02T11:33:36;6.15;;;3.45;;
29280;SDS011;25048;49.590;11.026;2023-07-02T11:36:05;4.35;;;2.83;;
29280;SDS011;25048;49.590;11.026;2023-07-02T11:38:34;5.75;;;3.27;;
29280;SDS011;25048;49.590;11.026;2023-07-02T11:41:03;6.70;;;3.42;;
29280;SDS011;25048;49.590;11.026;2023-07-02T11:43:31;5.28;;;3.30;;
29280;SDS011;25048;49.590;11.026;2023-07-02T11:46:00;6.83;;;4.10;;
29280;SDS011;25048;49.590;11.026;2023-07-02T11:48:27;6.78;;;3.70;;
29280;SDS011;25048;49.590;11.026;2023-07-02T11:50:55;5.67;;;2.90;;
29280;SDS011;25048;49.590;11.026;2023-07-02T11:53:22;6.17;;;3.90;;
29280;SDS011;25048;49.590;11.026;2023-07-02T11:55:50;8.53;;;3.62;;
29280;SDS011;25048;49.590;11.026;2023-07-02T11:58:18;4.60;;;3.33;;
29280;SDS011;25048;49.590;11.026;2023-07-02T12:00:45;4.62;;;3.35;;
29280;SDS011;25048;49.590;11.026;2023-07-02T12:03:13;5.67;;;3.17;;
29280;SDS011;25048;49.590;11.026;2023-07-02T12:05:40;7.78;;;3.90;;
29280;SDS011;25048;49.590;11.026;2023-07-02T12:08:08;8.23;;;4.45;;
29280;SDS011;25048;49.590;11.026;2023-07-02T12:10:35;4.37;;;3.42;;
29280;SDS011;25048;49.590;11.026;2023-07-02T12:13:03;5.42;;;3.58;;
29280;SDS011;25048;49.590;11.026;2023-07-02T12:15:30;6.60;;;4.10;;
29280;SDS011;25048;49.590;11.026;2023-07-02T12:17:58;9.55;;;4.85;;
29280;SDS011;25048;49.590;11.026;2023-07-02T12:20:25;8.15;;;4.40;;
29280;SDS011;25048;49.590;11.026;2023-07-02T12:22:53;8.03;;;4.22;;
29280;SDS011;25048;49.590;11.026;2023-07-02T12:25:20;7.20;;;4.72;;
29280;SDS011;25048;49.590;11.026;2023-07-02T12:27:48;7.15;;;4.05;;
29280;SDS011;25048;49.590;11.026;2023-07-02T12:30:15;6.33;;;4.08;;
29280;SDS011;25048;49.590;11.026;2023-07-02T12:32:44;9.98;;;4.22;;
29280;SDS011;25048;49.590;11.026;2023-07-02T12:35:12;11.05;;;4.92;;
29280;SDS011;25048;49.590;11.026;2023-07-02T12:37:43;10.70;;;5.85;;
29280;SDS011;25048;49.590;11.026;2023-07-02T12:40:11;11.15;;;5.47;;
29280;SDS011;25048;49.590;11.026;2023-07-02T12:42:42;11.33;;;5.50;;
29280;SDS011;25048;49.590;11.026;2023-07-02T12:45:11;7.47;;;4.92;;
29280;SDS011;25048;49.590;11.026;2023-07-02T12:47:40;8.60;;;5.62;;
29280;SDS011;25048;49.590;11.026;2023-07-02T12:50:09;10.13;;;5.45;;
29280;SDS011;25048;49.590;11.026;2023-07-02T12:52:37;8.80;;;4.97;;
29280;SDS011;25048;49.590;11.026;2023-07-02T12:55:05;8.25;;;5.25;;
29280;SDS011;25048;49.590;11.026;2023-07-02T12:57:32;10.82;;;5.28;;
29280;SDS011;25048;49.590;11.026;2023-07-02T13:00:00;10.82;;;6.50;;
29280;SDS011;25048;49.590;11.026;2023-07-02T13:02:30;13.40;;;6.37;;
29280;SDS011;25048;49.590;11.026;2023-07-02T13:04:58;12.82;;;7.30;;
29280;SDS011;25048;49.590;11.026;2023-07-02T13:07:26;10.53;;;6.37;;
29280;SDS011;25048;49.590;11.026;2023-07-02T13:09:56;11.22;;;6.55;;
29280;SDS011;25048;49.590;11.026;2023-07-02T13:12:23;11.73;;;6.45;;
29280;SDS011;25048;49.590;11.026;2023-07-02T13:14:51;14.63;;;6.62;;
29280;SDS011;25048;49.590;11.026;2023-07-02T13:17:18;12.98;;;6.97;;
29280;SDS011;25048;49.590;11.026;2023-07-02T13:19:45;12.50;;;6.97;;
29280;SDS011;25048;49.590;11.026;2023-07-02T13:22:14;13.18;;;7.87;;
29280;SDS011;25048;49.590;11.026;2023-07-02T13:24:42;21.70;;;8.83;;
29280;SDS011;25048;49.590;11.026;2023-07-02T13:27:12;12.65;;;7.05;;
29280;SDS011;25048;49.590;11.026;2023-07-02T13:29:40;15.98;;;7.75;;
29280;SDS011;25048;49.590;11.026;2023-07-02T13:32:08;13.32;;;7.40;;
29280;SDS011;25048;49.590;11.026;2023-07-02T13:34:37;14.35;;;7.22;;
29280;SDS011;25048;49.590;11.026;2023-07-02T13:37:05;18.60;;;8.08;;
29280;SDS011;25048;49.590;11.026;2023-07-02T13:39:32;14.78;;;7.28;;
29280;SDS011;25048;49.590;11.026;2023-07-02T13:42:00;14.20;;;8.25;;
29280;SDS011;25048;49.590;11.026;2023-07-02T13:44:27;22.85;;;8.80;;
29280;SDS011;25048;49.590;11.026;2023-07-02T13:46:55;20.57;;;7.95;;
29280;SDS011;25048;49.590;11.026;2023-07-02T13:49:22;13.25;;;7.85;;
29280;SDS011;25048;49.590;11.026;2023-07-02T13:51:50;20.80;;;8.88;;
29280;SDS011;25048;49.590;11.026;2023-07-02T13:54:17;15.23;;;7.92;;
29280;SDS011;25048;49.590;11.026;2023-07-02T13:56:46;16.60;;;7.85;;
29280;SDS011;25048;49.590;11.026;2023-07-02T13:59:14;13.62;;;8.55;;
29280;SDS011;25048;49.590;11.026;2023-07-02T14:01:43;15.65;;;8.75;;
29280;SDS011;25048;49.590;11.026;2023-07-02T14:04:12;16.65;;;8.35;;
29280;SDS011;25048;49.590;11.026;2023-07-02T14:06:40;15.83;;;9.70;;
29280;SDS011;25048;49.590;11.026;2023-07-02T14:09:07;13.05;;;8.28;;
29280;SDS011;25048;49.590;11.026;2023-07-02T14:11:37;15.80;;;7.58;;
29280;SDS011;25048;49.590;11.026;2023-07-02T14:14:06;15.38;;;8.50;;
29280;SDS011;25048;49.590;11.026;2023-07-02T14:16:34;14.25;;;7.72;;
29280;SDS011;25048;49.590;11.026;2023-07-02T14:19:02;17.62;;;8.80;;
29280;SDS011;25048;49.590;11.026;2023-07-02T14:21:29;15.83;;;8.33;;
29280;SDS011;25048;49.590;11.026;2023-07-02T14:23:57;15.98;;;8.33;;
29280;SDS011;25048;49.590;11.026;2023-07-02T14:26:31;14.83;;;8.30;;
29280;SDS011;25048;49.590;11.026;2023-07-02T14:28:55;15.55;;;8.30;;
29280;SDS011;25048;49.590;11.026;2023-07-02T14:31:24;14.85;;;8.93;;
29280;SDS011;25048;49.590;11.026;2023-07-02T14:33:54;15.75;;;8.78;;
29280;SDS011;25048;49.590;11.026;2023-07-02T14:36:22;14.80;;;8.23;;
29280;SDS011;25048;49.590;11.026;2023-07-02T14:38:50;16.60;;;7.70;;
29280;SDS011;25048;49.590;11.026;2023-07-02T14:41:17;14.33;;;8.05;;